Time;durP1;ratioP1;P1;durP2;ratioP2;P2;SDS_P1;SDS_P2;PMS_P1;PMS_P2;Temp;Humidity;BMP_temperature;BMP_pressure;BME280_temperature;BME280_humidity;BME280_pressure;Samples;Min_cycle;Max_cycle;Signal;HPM_P1;HPM_P2
2021/06/18 00:00:52;;;;;;;5.70;5.20;;;22.70;99.90;;;;;;5032858;28;20174;-70
2021/06/18 00:03:17;;;;;;;5.90;5.40;;;22.70;99.90;;;;;;5031784;28;20562;-70
2021/06/18 00:05:44;;;;;;;6.10;5.30;;;22.70;99.90;;;;;;5028986;28;20200;-70
2021/06/18 00:08:09;;;;;;;6.47;5.87;;;22.70;99.90;;;;;;5031139;28;20455;-70
2021/06/18 00:10:35;;;;;;;5.63;5.10;;;22.70;99.90;;;;;;5032922;28;20496;-70
2021/06/18 00:13:01;;;;;;;5.70;5.30;;;22.70;99.90;;;;;;5032330;28;20217;-70
2021/06/18 00:15:27;;;;;;;5.80;5.30;;;22.60;99.90;;;;;;5033180;28;20286;-70
2021/06/18 00:17:53;;;;;;;6.07;5.60;;;22.50;99.90;;;;;;5034197;28;20182;-70
2021/06/18 00:20:19;;;;;;;6.00;5.50;;;22.40;99.90;;;;;;5023075;28;20265;-70
2021/06/18 00:22:45;;;;;;;6.00;5.40;;;22.30;99.90;;;;;;5030493;28;20523;-70
2021/06/18 00:25:12;;;;;;;8.33;5.10;;;22.30;99.90;;;;;;5018726;28;20475;-70
2021/06/18 00:27:38;;;;;;;5.57;5.13;;;22.20;99.90;;;;;;5033102;28;20436;-70
2021/06/18 00:30:06;;;;;;;5.77;5.27;;;22.20;99.90;;;;;;5030765;28;20459;-70
2021/06/18 00:32:31;;;;;;;6.43;5.97;;;22.30;99.90;;;;;;5032319;28;20432;-70
2021/06/18 00:34:57;;;;;;;5.63;5.23;;;22.20;99.90;;;;;;5030967;28;21763;-70
2021/06/18 00:37:23;;;;;;;5.30;4.90;;;22.20;99.90;;;;;;5030219;28;20236;-70
2021/06/18 00:39:48;;;;;;;5.97;5.53;;;22.20;99.90;;;;;;5031324;28;20186;-70
2021/06/18 00:42:14;;;;;;;5.40;5.00;;;22.10;99.90;;;;;;5032432;28;20192;-70
2021/06/18 00:44:40;;;;;;;6.17;5.17;;;22.10;99.90;;;;;;5032204;28;20182;-70
2021/06/18 00:47:13;;;;;;;5.93;5.43;;;22.00;99.90;;;;;;5030762;28;20216;-70
2021/06/18 00:49:39;;;;;;;6.30;5.80;;;21.90;99.90;;;;;;5031389;28;20193;-70
2021/06/18 00:52:05;;;;;;;7.60;5.47;;;21.80;99.90;;;;;;5030525;28;20774;-70
2021/06/18 00:54:31;;;;;;;6.40;5.83;;;21.80;99.90;;;;;;5030491;28;20453;-70
2021/06/18 00:57:01;;;;;;;6.33;5.87;;;21.80;99.90;;;;;;5030664;28;20779;-70
2021/06/18 00:59:27;;;;;;;6.10;5.70;;;21.80;99.90;;;;;;5031371;28;20192;-70
2021/06/18 01:01:53;;;;;;;6.23;5.63;;;21.70;99.90;;;;;;5031017;28;21969;-70
2021/06/18 01:04:22;;;;;;;6.27;5.87;;;21.60;99.90;;;;;;5009347;28;20436;-70
2021/06/18 01:06:59;;;;;;;6.87;6.10;;;21.50;99.90;;;;;;5031499;28;20456;-70
2021/06/18 01:09:29;;;;;;;6.40;5.80;;;21.50;99.90;;;;;;5032268;28;20459;-70
2021/06/18 01:12:12;;;;;;;6.57;6.10;;;21.40;99.90;;;;;;5027763;28;20439;-70
2021/06/18 01:14:52;;;;;;;6.60;6.03;;;21.40;99.90;;;;;;5032203;28;20818;-70
2021/06/18 01:17:34;;;;;;;6.10;5.80;;;21.40;99.90;;;;;;5031025;28;20432;-70
2021/06/18 01:20:50;;;;;;;6.97;6.33;;;21.40;99.90;;;;;;5031569;28;20531;-70
2021/06/18 01:23:28;;;;;;;6.47;6.00;;;21.40;99.90;;;;;;4992985;28;20531;-69
2021/06/18 01:26:22;;;;;;;6.37;5.97;;;21.30;99.90;;;;;;5032676;28;20428;-69
2021/06/18 01:28:56;;;;;;;6.57;6.00;;;21.30;99.90;;;;;;5032649;28;20753;-69
2021/06/18 01:31:28;;;;;;;6.70;6.03;;;21.30;99.90;;;;;;5030240;28;20908;-69
2021/06/18 01:34:00;;;;;;;6.67;5.97;;;21.20;99.90;;;;;;5019775;28;20452;-70
2021/06/18 01:36:30;;;;;;;6.73;6.33;;;21.20;99.90;;;;;;5032241;28;20471;-70
2021/06/18 01:38:58;;;;;;;7.20;6.50;;;21.10;99.90;;;;;;5032736;28;20426;-70
2021/06/18 01:41:29;;;;;;;6.40;5.93;;;21.10;99.90;;;;;;5030405;28;20793;-70
2021/06/18 01:43:55;;;;;;;6.70;6.20;;;21.10;99.90;;;;;;5021874;28;20437;-70
2021/06/18 01:46:26;;;;;;;5.97;5.57;;;21.10;99.90;;;;;;5031594;28;20432;-70
2021/06/18 01:49:00;;;;;;;6.37;5.87;;;21.00;99.90;;;;;;5006272;28;20459;-70
2021/06/18 01:51:28;;;;;;;7.70;7.00;;;21.00;99.90;;;;;;5029140;28;20420;-70
2021/06/18 01:53:56;;;;;;;7.33;6.73;;;21.00;99.90;;;;;;5031039;28;20543;-70
2021/06/18 01:56:24;;;;;;;6.53;6.13;;;20.90;99.90;;;;;;5030660;28;20889;-70
2021/06/18 01:58:54;;;;;;;7.00;6.40;;;20.90;99.90;;;;;;5031218;28;20431;-70
2021/06/18 02:01:22;;;;;;;6.20;5.63;;;20.90;99.90;;;;;;5031778;28;20468;-70
2021/06/18 02:03:49;;;;;;;6.57;6.07;;;20.80;99.90;;;;;;5031662;28;20440;-70
2021/06/18 02:06:18;;;;;;;7.30;6.70;;;20.80;99.90;;;;;;5029957;28;20444;-70
2021/06/18 02:08:45;;;;;;;6.50;6.10;;;20.70;99.90;;;;;;5031067;28;20430;-70
2021/06/18 02:11:13;;;;;;;7.60;6.90;;;20.70;99.90;;;;;;5030103;28;20447;-70
2021/06/18 02:13:41;;;;;;;6.40;5.90;;;20.70;99.90;;;;;;5030000;28;20941;-70
2021/06/18 02:16:08;;;;;;;6.63;6.13;;;20.60;99.90;;;;;;5030155;28;20760;-70
2021/06/18 02:18:37;;;;;;;7.33;6.83;;;20.60;99.90;;;;;;5031399;28;20851;-70
2021/06/18 02:21:03;;;;;;;7.67;6.77;;;20.60;99.90;;;;;;5030750;28;20506;-70
2021/06/18 02:23:32;;;;;;;7.13;6.63;;;20.50;99.90;;;;;;5029573;28;20443;-70
2021/06/18 02:26:00;;;;;;;7.10;6.50;;;20.50;99.90;;;;;;5030552;28;20519;-70
2021/06/18 02:28:26;;;;;;;7.73;7.23;;;20.40;99.90;;;;;;5031053;28;20548;-70
2021/06/18 02:30:53;;;;;;;7.70;7.00;;;20.40;99.90;;;;;;5030154;28;21017;-70
2021/06/18 02:33:19;;;;;;;6.90;6.30;;;20.50;99.90;;;;;;5029738;28;20460;-70
2021/06/18 02:35:46;;;;;;;7.93;7.27;;;20.40;99.90;;;;;;5029433;28;20443;-70
2021/06/18 02:38:13;;;;;;;8.10;7.50;;;20.30;99.90;;;;;;5031038;28;20204;-70
2021/06/18 02:40:40;;;;;;;7.50;7.00;;;20.20;99.90;;;;;;5030484;28;20432;-70
2021/06/18 02:43:06;;;;;;;7.40;6.97;;;20.20;99.90;;;;;;5028939;28;20512;-70
2021/06/18 02:45:32;;;;;;;7.53;6.90;;;20.20;99.90;;;;;;5030378;28;20593;-70
2021/06/18 02:48:13;;;;;;;8.40;7.60;;;20.20;99.90;;;;;;5029043;28;20181;-70
2021/06/18 02:50:39;;;;;;;8.10;7.40;;;20.10;99.90;;;;;;5029813;28;20424;-70
2021/06/18 02:53:25;;;;;;;7.80;7.20;;;20.10;99.90;;;;;;5030052;28;20460;-70
2021/06/18 02:55:52;;;;;;;8.13;7.53;;;20.10;99.90;;;;;;5034351;28;20809;-70
2021/06/18 02:58:36;;;;;;;9.00;8.13;;;20.10;99.90;;;;;;5033897;28;20943;-70
2021/06/18 03:01:06;;;;;;;8.50;7.70;;;20.10;99.90;;;;;;5032629;28;20420;-70
2021/06/18 03:03:40;;;;;;;8.40;7.80;;;20.10;99.90;;;;;;5032964;28;20481;-70
2021/06/18 03:06:07;;;;;;;7.10;6.60;;;20.10;99.90;;;;;;5035148;28;20452;-70
2021/06/18 03:08:44;;;;;;;7.87;7.27;;;20.00;99.90;;;;;;5034167;28;20439;-70
2021/06/18 03:11:11;;;;;;;8.17;7.57;;;19.90;99.90;;;;;;5032776;28;20435;-70
2021/06/18 03:13:43;;;;;;;8.27;7.57;;;19.90;99.90;;;;;;5034604;28;20507;-70
2021/06/18 03:16:11;;;;;;;9.70;8.90;;;19.90;99.90;;;;;;5034238;28;20420;-70
2021/06/18 03:18:38;;;;;;;7.43;7.00;;;19.90;99.90;;;;;;5032943;28;20511;-70
2021/06/18 03:21:07;;;;;;;7.73;7.13;;;19.90;99.90;;;;;;5031603;28;20428;-70
2021/06/18 03:23:34;;;;;;;9.10;8.20;;;19.90;99.90;;;;;;5035469;28;20459;-70
2021/06/18 03:26:03;;;;;;;7.93;7.23;;;19.90;99.90;;;;;;5034156;28;20459;-70
2021/06/18 03:28:30;;;;;;;8.53;7.93;;;19.90;99.90;;;;;;5032789;28;20440;-70
2021/06/18 03:30:56;;;;;;;8.20;7.60;;;19.90;99.90;;;;;;5034264;28;20929;-70
2021/06/18 03:33:23;;;;;;;8.20;7.60;;;19.90;99.90;;;;;;5033040;28;20956;-70
2021/06/18 03:35:50;;;;;;;8.37;7.80;;;19.80;99.90;;;;;;5032441;28;20429;-70
2021/06/18 03:38:17;;;;;;;8.57;7.87;;;19.90;99.90;;;;;;5034602;28;20491;-70
2021/06/18 03:40:43;;;;;;;8.57;7.90;;;19.80;99.90;;;;;;5033686;28;20524;-70
2021/06/18 03:43:09;;;;;;;8.53;7.93;;;19.80;99.90;;;;;;5032503;28;20428;-70
2021/06/18 03:45:41;;;;;;;9.77;8.70;;;19.90;99.90;;;;;;5035078;28;20459;-70
2021/06/18 03:48:11;;;;;;;9.50;8.70;;;19.90;99.90;;;;;;5033949;28;20503;-70
2021/06/18 03:50:37;;;;;;;9.83;8.97;;;19.90;99.90;;;;;;5034033;28;20432;-70
2021/06/18 03:53:02;;;;;;;9.60;8.83;;;19.90;99.90;;;;;;5032746;28;20519;-70
2021/06/18 03:55:29;;;;;;;8.90;8.30;;;20.00;99.90;;;;;;5034207;28;20189;-70
2021/06/18 03:57:55;;;;;;;9.90;8.90;;;20.00;99.90;;;;;;5034341;28;20506;-70
2021/06/18 04:00:21;;;;;;;9.60;8.90;;;20.10;99.90;;;;;;5032521;28;20428;-70
2021/06/18 04:02:50;;;;;;;9.43;8.63;;;20.10;99.90;;;;;;5033092;28;20432;-70
2021/06/18 04:05:19;;;;;;;8.97;8.27;;;20.10;99.90;;;;;;5033527;28;20928;-70
2021/06/18 04:07:48;;;;;;;9.40;8.70;;;20.10;99.90;;;;;;5033271;28;20436;-70
2021/06/18 04:10:16;;;;;;;9.40;8.70;;;20.10;99.90;;;;;;5032288;28;20991;-70
2021/06/18 04:12:44;;;;;;;10.20;9.20;;;20.10;99.90;;;;;;5030377;28;20888;-70
2021/06/18 04:15:10;;;;;;;8.80;8.00;;;20.20;99.90;;;;;;5032898;28;20461;-70
2021/06/18 04:17:36;;;;;;;8.80;8.00;;;20.20;99.90;;;;;;5032317;28;20525;-70
2021/06/18 04:20:03;;;;;;;9.50;8.70;;;20.30;99.90;;;;;;5033268;28;20875;-70
2021/06/18 04:22:34;;;;;;;9.57;8.87;;;20.30;99.90;;;;;;5032005;28;20174;-69
2021/06/18 04:25:00;;;;;;;8.90;8.27;;;20.30;99.90;;;;;;5032952;28;20431;-70
2021/06/18 04:27:26;;;;;;;8.87;8.20;;;20.40;99.90;;;;;;5032794;28;20567;-69
2021/06/18 04:29:52;;;;;;;9.23;8.43;;;20.40;99.90;;;;;;5031887;28;20436;-70
2021/06/18 04:32:18;;;;;;;9.77;8.77;;;20.50;99.90;;;;;;5032811;28;20642;-70
2021/06/18 04:34:44;;;;;;;9.47;8.67;;;20.50;99.90;;;;;;5032646;28;20456;-69
2021/06/18 04:37:09;;;;;;;7.90;7.40;;;20.50;99.90;;;;;;5034130;28;20416;-69
2021/06/18 04:39:35;;;;;;;10.13;9.03;;;20.50;99.90;;;;;;5032197;28;20439;-70
2021/06/18 04:42:01;;;;;;;8.13;7.60;;;20.50;99.90;;;;;;5031201;28;20174;-69
2021/06/18 04:44:28;;;;;;;9.60;8.77;;;20.50;99.90;;;;;;5029179;28;20189;-70
2021/06/18 04:46:54;;;;;;;9.30;8.50;;;20.60;99.90;;;;;;5032570;28;20432;-69
2021/06/18 04:49:20;;;;;;;10.17;9.30;;;20.70;99.90;;;;;;5030642;28;20428;-69
2021/06/18 04:51:45;;;;;;;11.57;9.73;;;20.70;99.90;;;;;;5029282;28;20636;-70
2021/06/18 04:54:12;;;;;;;9.60;8.80;;;20.80;99.90;;;;;;5029938;28;20210;-71
2021/06/18 04:56:39;;;;;;;10.20;9.20;;;20.80;99.90;;;;;;5020297;28;20178;-70
2021/06/18 04:59:05;;;;;;;8.93;8.23;;;20.90;99.90;;;;;;5030051;28;20436;-70
2021/06/18 05:01:30;;;;;;;9.43;8.53;;;20.90;99.90;;;;;;5029142;28;20771;-70
2021/06/18 05:03:56;;;;;;;9.20;8.40;;;21.00;99.90;;;;;;5031204;28;20518;-70
2021/06/18 05:06:22;;;;;;;10.63;9.73;;;21.10;99.90;;;;;;5027786;28;20209;-70
2021/06/18 05:08:48;;;;;;;10.73;9.80;;;21.10;99.90;;;;;;5031159;28;20257;-70
2021/06/18 05:11:13;;;;;;;9.80;9.00;;;21.20;99.90;;;;;;5030874;28;20431;-70
2021/06/18 05:13:39;;;;;;;12.07;10.47;;;21.30;99.90;;;;;;5032920;28;20204;-70
2021/06/18 05:16:04;;;;;;;9.20;8.50;;;21.30;99.90;;;;;;5028706;28;20182;-70
2021/06/18 05:18:30;;;;;;;9.57;8.87;;;21.40;99.90;;;;;;5030072;28;20549;-70
2021/06/18 05:20:56;;;;;;;14.73;9.50;;;21.50;99.90;;;;;;5031570;28;20182;-70
2021/06/18 05:23:21;;;;;;;10.50;9.00;;;21.50;99.90;;;;;;5026164;28;20174;-70
2021/06/18 05:25:47;;;;;;;9.03;8.33;;;21.60;99.90;;;;;;5028951;28;20197;-70
2021/06/18 05:28:12;;;;;;;8.87;8.07;;;21.70;99.90;;;;;;5030295;28;20236;-70
2021/06/18 05:30:38;;;;;;;9.70;8.90;;;21.80;99.90;;;;;;5029768;28;20178;-71
2021/06/18 05:33:04;;;;;;;9.67;8.80;;;21.90;99.90;;;;;;5029292;28;20519;-70
2021/06/18 05:35:30;;;;;;;8.70;7.90;;;21.90;99.90;;;;;;5027483;28;20208;-70
2021/06/18 05:37:56;;;;;;;8.90;8.20;;;22.00;99.90;;;;;;5028465;28;20271;-70
2021/06/18 05:40:21;;;;;;;8.70;7.90;;;22.00;99.90;;;;;;5027447;28;20193;-70
2021/06/18 05:42:47;;;;;;;9.27;8.43;;;22.10;99.90;;;;;;5022526;28;20186;-70
2021/06/18 05:45:13;;;;;;;8.70;7.93;;;22.20;99.90;;;;;;5030029;28;20260;-70
2021/06/18 05:47:39;;;;;;;9.20;8.40;;;22.30;99.90;;;;;;5031149;28;20190;-70
2021/06/18 05:50:06;;;;;;;9.83;8.37;;;22.30;99.90;;;;;;5024562;28;20452;-70
2021/06/18 05:52:32;;;;;;;8.53;7.63;;;22.40;99.90;;;;;;5028342;28;20528;-70
2021/06/18 05:54:58;;;;;;;9.03;8.13;;;22.40;99.90;;;;;;5029584;28;20938;-70
2021/06/18 05:57:23;;;;;;;9.20;8.47;;;22.50;99.90;;;;;;5029123;28;20440;-70
2021/06/18 05:59:49;;;;;;;8.20;7.40;;;22.60;99.90;;;;;;5030885;28;20185;-70
2021/06/18 06:02:15;;;;;;;8.23;7.57;;;22.70;99.90;;;;;;5027885;28;20530;-70
2021/06/18 06:04:40;;;;;;;10.97;9.23;;;22.70;99.90;;;;;;5028289;28;20182;-70
2021/06/18 06:07:06;;;;;;;8.87;8.10;;;22.80;99.90;;;;;;5026739;28;20534;-70
2021/06/18 06:09:32;;;;;;;7.93;7.43;;;22.90;99.90;;;;;;5032021;28;20343;-70
2021/06/18 06:11:58;;;;;;;8.40;7.70;;;22.90;99.90;;;;;;5031348;28;20181;-70
2021/06/18 06:14:23;;;;;;;8.00;7.40;;;23.00;99.90;;;;;;5031249;28;20213;-70
2021/06/18 06:16:49;;;;;;;8.33;7.80;;;23.20;99.90;;;;;;5032338;28;20264;-70
2021/06/18 06:19:15;;;;;;;8.67;7.97;;;23.30;99.90;;;;;;5031128;28;20206;-70
2021/06/18 06:21:41;;;;;;;9.67;8.87;;;23.30;99.90;;;;;;5030667;28;20178;-70
2021/06/18 06:24:11;;;;;;;8.70;8.00;;;23.40;99.90;;;;;;5031300;28;20190;-70
2021/06/18 06:26:37;;;;;;;9.33;8.47;;;23.40;99.90;;;;;;5028271;28;20456;-70
2021/06/18 06:29:03;;;;;;;8.80;8.00;;;23.40;99.90;;;;;;5029349;28;20519;-70
2021/06/18 06:31:29;;;;;;;7.97;7.37;;;23.50;99.90;;;;;;5024730;28;20506;-70
2021/06/18 06:33:54;;;;;;;8.10;7.40;;;23.60;99.90;;;;;;5029546;28;20452;-70
2021/06/18 06:36:20;;;;;;;8.60;7.90;;;23.60;99.90;;;;;;5031096;28;20182;-70
2021/06/18 06:38:46;;;;;;;8.83;8.03;;;23.80;99.90;;;;;;5030275;28;20196;-70
2021/06/18 06:41:12;;;;;;;11.90;7.80;;;23.90;99.90;;;;;;5030657;28;20228;-70
2021/06/18 06:43:38;;;;;;;8.83;8.13;;;24.00;99.90;;;;;;5026546;28;20185;-70
2021/06/18 06:46:04;;;;;;;8.80;8.10;;;24.10;99.90;;;;;;5029257;28;20433;-70
2021/06/18 06:48:30;;;;;;;7.60;7.00;;;24.20;99.90;;;;;;5029113;28;20912;-70
2021/06/18 06:50:56;;;;;;;8.30;7.63;;;24.30;99.90;;;;;;5030278;28;20228;-71
2021/06/18 06:53:22;;;;;;;7.73;7.00;;;24.30;99.90;;;;;;5029999;28;20503;-70
2021/06/18 06:55:48;;;;;;;8.77;8.00;;;24.40;99.90;;;;;;5027895;28;20582;-70
2021/06/18 06:58:13;;;;;;;8.10;7.50;;;24.50;99.90;;;;;;5029562;28;20201;-70
2021/06/18 07:00:39;;;;;;;9.77;8.13;;;24.50;99.90;;;;;;5027288;28;20181;-71
2021/06/18 07:03:05;;;;;;;8.43;7.83;;;24.60;99.90;;;;;;5027440;28;20178;-70
2021/06/18 07:05:31;;;;;;;10.07;9.10;;;24.70;99.90;;;;;;5028454;28;20194;-70
2021/06/18 07:07:56;;;;;;;10.37;8.63;;;24.70;99.90;;;;;;5007200;28;20197;-70
2021/06/18 07:10:22;;;;;;;8.30;7.70;;;24.90;99.90;;;;;;5027643;28;20186;-70
2021/06/18 07:12:47;;;;;;;9.30;8.43;;;25.00;99.90;;;;;;5025826;28;20240;-71
2021/06/18 07:15:14;;;;;;;8.13;7.33;;;25.10;99.90;;;;;;5027981;28;23280;-70
2021/06/18 07:17:39;;;;;;;9.87;9.00;;;25.10;99.90;;;;;;5028776;28;20224;-70
2021/06/18 07:20:06;;;;;;;8.73;8.03;;;25.10;99.90;;;;;;5029646;28;21020;-70
2021/06/18 07:22:32;;;;;;;9.93;9.10;;;25.20;99.90;;;;;;5029636;28;20516;-70
2021/06/18 07:24:59;;;;;;;8.57;7.97;;;25.30;99.90;;;;;;5029268;28;20569;-70
2021/06/18 07:27:26;;;;;;;8.60;7.97;;;25.30;99.90;;;;;;5029596;28;20705;-70
2021/06/18 07:29:53;;;;;;;8.17;7.47;;;25.40;99.90;;;;;;5029284;28;20428;-70
2021/06/18 07:32:19;;;;;;;8.07;7.57;;;25.40;99.90;;;;;;5029261;28;20952;-70
2021/06/18 07:34:45;;;;;;;7.93;7.40;;;25.50;99.90;;;;;;5029871;28;20460;-70
2021/06/18 07:37:10;;;;;;;8.80;7.70;;;25.60;99.90;;;;;;5003449;28;20185;-71
2021/06/18 07:39:36;;;;;;;10.30;9.40;;;25.70;99.90;;;;;;5029795;28;20655;-71
2021/06/18 07:42:02;;;;;;;9.83;7.80;;;26.00;99.90;;;;;;5030973;28;20816;-70
2021/06/18 07:44:28;;;;;;;9.00;8.30;;;26.10;99.90;;;;;;5031585;28;20186;-71
2021/06/18 07:46:53;;;;;;;8.27;7.57;;;26.30;99.90;;;;;;5032108;28;20431;-71
2021/06/18 07:49:19;;;;;;;9.13;8.43;;;26.30;99.90;;;;;;5032706;28;20196;-70
2021/06/18 07:51:45;;;;;;;8.43;7.83;;;26.40;99.90;;;;;;5031874;28;20634;-71
2021/06/18 07:54:10;;;;;;;11.77;8.53;;;26.40;99.90;;;;;;5032934;28;20296;-70
2021/06/18 07:56:46;;;;;;;9.10;8.40;;;26.50;99.90;;;;;;5032760;28;20197;-70
2021/06/18 07:59:12;;;;;;;8.50;7.90;;;26.60;99.90;;;;;;5033611;28;20170;-71
2021/06/18 08:01:38;;;;;;;8.37;7.77;;;26.70;99.90;;;;;;5029965;28;20536;-70
2021/06/18 08:04:04;;;;;;;8.00;7.40;;;26.80;99.90;;;;;;5027717;28;20440;-71
2021/06/18 08:06:30;;;;;;;8.13;7.63;;;26.90;99.90;;;;;;5031175;28;20284;-71
2021/06/18 08:08:56;;;;;;;8.77;8.17;;;26.90;99.90;;;;;;5032472;28;20931;-70
2021/06/18 08:11:21;;;;;;;8.90;8.30;;;27.10;99.90;;;;;;5030511;28;20331;-70
2021/06/18 08:13:47;;;;;;;8.63;7.93;;;27.10;99.90;;;;;;5032721;28;20571;-70
2021/06/18 08:16:12;;;;;;;8.00;7.50;;;27.20;99.90;;;;;;5032580;28;20247;-70
2021/06/18 08:18:39;;;;;;;7.97;7.37;;;27.20;99.90;;;;;;5031560;28;20189;-70
2021/06/18 08:21:06;;;;;;;8.10;7.50;;;27.30;99.90;;;;;;5031781;28;20201;-71
2021/06/18 08:23:32;;;;;;;7.77;7.17;;;27.40;99.90;;;;;;5031015;28;20437;-71
2021/06/18 08:25:58;;;;;;;7.80;7.07;;;27.50;99.90;;;;;;5021122;28;20468;-70
2021/06/18 08:28:24;;;;;;;9.10;8.40;;;27.70;99.90;;;;;;5032287;28;20447;-70
2021/06/18 08:30:50;;;;;;;9.17;8.40;;;27.80;99.90;;;;;;5030366;28;20440;-70
2021/06/18 08:33:16;;;;;;;8.67;8.00;;;27.80;99.90;;;;;;5031405;28;20440;-70
2021/06/18 08:35:41;;;;;;;8.67;8.17;;;27.80;99.90;;;;;;5032497;28;21004;-70
2021/06/18 08:38:07;;;;;;;8.60;7.90;;;27.80;99.90;;;;;;5031141;28;20181;-70
2021/06/18 08:40:34;;;;;;;7.83;7.40;;;27.90;99.90;;;;;;5030581;28;20619;-70
2021/06/18 08:43:01;;;;;;;20.93;8.30;;;28.00;99.90;;;;;;5029651;28;20620;-70
2021/06/18 08:45:28;;;;;;;9.93;8.97;;;28.10;99.90;;;;;;5030714;28;20432;-70
2021/06/18 08:47:53;;;;;;;9.07;8.30;;;28.10;99.90;;;;;;5031278;28;20433;-70
2021/06/18 08:50:23;;;;;;;8.77;8.07;;;28.30;99.90;;;;;;5031425;28;20432;-71
2021/06/18 08:52:55;;;;;;;8.63;8.10;;;28.40;99.90;;;;;;5030589;28;20197;-72
2021/06/18 08:55:22;;;;;;;9.53;8.53;;;28.50;99.90;;;;;;5030255;28;20844;-70
2021/06/18 08:57:53;;;;;;;8.17;7.67;;;28.70;99.90;;;;;;5030462;28;20413;-71
2021/06/18 09:00:22;;;;;;;9.50;8.57;;;28.80;99.90;;;;;;5031570;28;20429;-71
2021/06/18 09:02:48;;;;;;;9.00;8.30;;;29.00;99.90;;;;;;5029387;28;20796;-71
2021/06/18 09:05:15;;;;;;;10.33;9.10;;;29.10;99.90;;;;;;5029985;28;20529;-71
2021/06/18 09:07:58;;;;;;;9.73;9.03;;;29.20;99.90;;;;;;5031912;28;20190;-70
2021/06/18 09:10:42;;;;;;;9.17;8.50;;;29.10;99.90;;;;;;5031374;28;20459;-71
2021/06/18 09:13:14;;;;;;;9.03;8.23;;;29.10;99.90;;;;;;5006625;28;20432;-71
2021/06/18 09:15:50;;;;;;;9.03;8.30;;;29.10;99.90;;;;;;5030434;28;20432;-70
2021/06/18 09:18:32;;;;;;;8.70;8.00;;;29.20;99.90;;;;;;5030762;28;20438;-70
2021/06/18 09:21:01;;;;;;;9.93;9.13;;;29.40;99.90;;;;;;5026670;28;20818;-70
2021/06/18 09:23:33;;;;;;;8.63;8.13;;;29.60;99.90;;;;;;5029565;28;20432;-71
2021/06/18 09:26:50;;;;;;;9.27;7.90;;;29.70;99.90;;;;;;5031303;28;20425;-71
2021/06/18 09:29:19;;;;;;;8.70;8.00;;;30.00;99.90;;;;;;4966086;28;20542;-71
2021/06/18 09:32:12;;;;;;;8.70;8.20;;;30.30;99.90;;;;;;5016621;28;21078;-71
2021/06/18 09:37:13;;;;;;;8.90;8.30;;;30.60;99.90;;;;;;5029692;28;20428;-70
2021/06/18 09:39:59;;;;;;;10.10;8.63;;;30.80;99.90;;;;;;5027109;28;20490;-72
2021/06/18 09:42:25;;;;;;;9.13;8.27;;;30.90;99.90;;;;;;5024925;28;21333;-70
2021/06/18 09:45:07;;;;;;;9.73;8.33;;;31.00;99.90;;;;;;5029273;28;20428;-70
2021/06/18 09:47:35;;;;;;;8.60;7.87;;;31.00;99.90;;;;;;5029299;28;20424;-70
2021/06/18 09:50:01;;;;;;;9.23;8.27;;;31.20;99.90;;;;;;5029056;28;20423;-71
2021/06/18 09:52:26;;;;;;;8.40;7.80;;;31.30;99.90;;;;;;5029345;28;20957;-71
2021/06/18 09:54:53;;;;;;;8.43;7.83;;;31.40;99.90;;;;;;5030312;28;20511;-70
2021/06/18 09:57:22;;;;;;;9.20;8.50;;;31.50;99.90;;;;;;5027888;28;20614;-71
2021/06/18 10:00:00;;;;;;;8.63;7.97;;;31.60;99.90;;;;;;5029953;28;20435;-71
2021/06/18 10:02:45;;;;;;;9.87;9.20;;;31.50;99.90;;;;;;5025835;28;20502;-70
2021/06/18 10:05:16;;;;;;;9.77;8.80;;;31.70;99.90;;;;;;5029381;28;20437;-71
2021/06/18 10:07:43;;;;;;;9.07;8.37;;;31.70;99.90;;;;;;5027323;28;20511;-71
2021/06/18 10:10:26;;;;;;;8.30;7.60;;;31.70;99.90;;;;;;5026411;28;20772;-70
2021/06/18 10:12:54;;;;;;;9.10;8.43;;;31.80;99.90;;;;;;5029751;28;21214;-70
2021/06/18 10:15:21;;;;;;;9.10;8.40;;;32.00;99.90;;;;;;5030581;28;20451;-70
2021/06/18 10:17:49;;;;;;;10.17;9.30;;;32.30;99.90;;;;;;5030253;28;20432;-70
2021/06/18 10:20:19;;;;;;;10.23;9.33;;;32.20;99.90;;;;;;5027419;28;20512;-70
2021/06/18 10:23:10;;;;;;;10.63;9.77;;;32.30;99.90;;;;;;5028779;28;20774;-70
2021/06/18 10:25:42;;;;;;;11.50;10.40;;;32.30;99.90;;;;;;5029617;28;20516;-70
2021/06/18 10:28:09;;;;;;;11.57;10.53;;;32.30;99.90;;;;;;5029005;28;20836;-70
2021/06/18 10:30:46;;;;;;;11.00;10.10;;;32.20;99.90;;;;;;5027838;28;20437;-70
2021/06/18 10:33:27;;;;;;;11.53;10.57;;;32.20;99.90;;;;;;5030105;28;20412;-70
2021/06/18 10:36:04;;;;;;;12.13;11.00;;;31.90;99.90;;;;;;5030353;28;20456;-70
2021/06/18 10:38:38;;;;;;;11.40;10.63;;;31.80;99.90;;;;;;5030589;28;20412;-70
2021/06/18 10:41:24;;;;;;;11.13;10.03;;;31.80;99.90;;;;;;5029898;28;20772;-70
2021/06/18 10:43:58;;;;;;;11.53;10.47;;;31.80;99.90;;;;;;5029735;28;20464;-70
2021/06/18 10:46:36;;;;;;;10.73;9.73;;;31.90;99.90;;;;;;5031216;28;20732;-70
2021/06/18 10:49:13;;;;;;;14.33;10.57;;;32.00;99.90;;;;;;5030472;28;20537;-70
2021/06/18 10:51:43;;;;;;;11.33;10.20;;;32.20;99.90;;;;;;5030741;28;20456;-70
2021/06/18 10:54:16;;;;;;;11.23;10.10;;;32.20;99.90;;;;;;5030787;28;20938;-70
2021/06/18 10:56:45;;;;;;;12.87;10.53;;;32.10;99.90;;;;;;5031337;28;20429;-70
2021/06/18 10:59:12;;;;;;;11.97;10.87;;;32.20;99.90;;;;;;5031008;28;20428;-71
2021/06/18 11:01:39;;;;;;;11.13;10.23;;;32.00;99.90;;;;;;5029198;28;20428;-71
2021/06/18 11:04:07;;;;;;;10.17;9.17;;;31.90;99.90;;;;;;5029714;28;20451;-71
2021/06/18 11:06:43;;;;;;;10.30;9.50;;;32.10;99.90;;;;;;5028786;28;20509;-69
2021/06/18 11:09:09;;;;;;;11.43;9.90;;;32.40;99.90;;;;;;5029920;28;20416;-71
2021/06/18 11:11:35;;;;;;;9.50;8.90;;;32.60;99.90;;;;;;5016366;28;20452;-71
2021/06/18 11:14:03;;;;;;;11.87;11.10;;;32.60;99.90;;;;;;5028627;28;20456;-71
2021/06/18 11:16:40;;;;;;;10.07;9.40;;;32.70;99.90;;;;;;5033793;28;20498;-71
2021/06/18 11:19:26;;;;;;;12.33;10.40;;;32.70;99.90;;;;;;5033275;28;20420;-71
2021/06/18 11:21:53;;;;;;;10.23;9.27;;;32.90;99.90;;;;;;5030075;28;20420;-70
2021/06/18 11:24:33;;;;;;;11.43;10.50;;;33.00;99.90;;;;;;5033661;28;20443;-70
2021/06/18 11:27:21;;;;;;;11.30;10.20;;;33.20;99.90;;;;;;5032561;28;20432;-71
2021/06/18 11:29:47;;;;;;;10.40;9.60;;;33.30;99.90;;;;;;5031479;28;20428;-70
2021/06/18 11:32:42;;;;;;;10.83;10.00;;;33.40;99.90;;;;;;5031101;28;20452;-70
2021/06/18 11:35:31;;;;;;;10.10;9.30;;;33.60;99.90;;;;;;5033930;28;20208;-70
2021/06/18 11:38:23;;;;;;;12.17;11.10;;;33.90;99.90;;;;;;5021963;28;20420;-70
2021/06/18 11:40:59;;;;;;;12.27;11.17;;;33.90;99.90;;;;;;5032224;28;20527;-70
2021/06/18 11:43:31;;;;;;;10.23;9.53;;;33.90;99.90;;;;;;5031739;28;20428;-70
2021/06/18 11:46:01;;;;;;;12.17;11.17;;;33.90;99.90;;;;;;5032584;28;20503;-70
2021/06/18 11:48:27;;;;;;;11.60;10.60;;;33.90;99.90;;;;;;5032707;28;20416;-70
2021/06/18 11:50:53;;;;;;;11.63;10.60;;;34.00;99.90;;;;;;5033351;28;20420;-71
2021/06/18 11:53:20;;;;;;;11.13;10.00;;;34.10;99.90;;;;;;5029613;28;20424;-70
2021/06/18 11:56:07;;;;;;;12.03;11.23;;;34.10;99.90;;;;;;5032229;28;20447;-70
2021/06/18 11:58:35;;;;;;;12.50;11.50;;;34.50;99.90;;;;;;5034098;28;20930;-68
2021/06/18 12:01:15;;;;;;;11.83;10.83;;;34.50;99.90;;;;;;5034261;28;20412;-70
2021/06/18 12:03:42;;;;;;;12.73;10.73;;;34.60;99.90;;;;;;5034551;28;20420;-70
2021/06/18 12:06:28;;;;;;;11.87;10.97;;;34.70;99.90;;;;;;5032836;28;20428;-70
2021/06/18 12:09:08;;;;;;;9.90;9.23;;;34.60;99.90;;;;;;5032789;28;20510;-70
2021/06/18 12:11:46;;;;;;;10.53;9.73;;;34.70;99.90;;;;;;5033289;28;20432;-71
2021/06/18 12:14:15;;;;;;;12.40;11.40;;;35.00;99.90;;;;;;5032918;28;20448;-70
2021/06/18 12:16:44;;;;;;;12.47;11.37;;;35.00;99.90;;;;;;5028378;28;20424;-70
2021/06/18 12:19:21;;;;;;;12.17;11.20;;;35.10;99.90;;;;;;5032618;28;20425;-70
2021/06/18 12:21:57;;;;;;;11.60;10.70;;;35.10;99.90;;;;;;5031884;28;20503;-69
2021/06/18 12:24:28;;;;;;;11.50;10.50;;;35.00;99.90;;;;;;5032287;28;20789;-70
2021/06/18 12:26:56;;;;;;;11.20;10.40;;;35.10;99.90;;;;;;5031165;28;20515;-70
2021/06/18 12:29:21;;;;;;;14.33;11.70;;;35.40;99.90;;;;;;5029368;28;20909;-70
2021/06/18 12:31:49;;;;;;;13.03;12.13;;;35.70;99.90;;;;;;5032346;28;20482;-70
2021/06/18 12:34:15;;;;;;;12.47;11.43;;;35.60;99.90;;;;;;5032875;28;20272;-70
2021/06/18 12:36:41;;;;;;;12.10;10.90;;;35.40;99.90;;;;;;5032882;28;20439;-70
2021/06/18 12:39:13;;;;;;;12.40;11.53;;;35.30;99.90;;;;;;5033216;28;20432;-70
2021/06/18 12:41:40;;;;;;;11.93;11.03;;;35.40;99.90;;;;;;5031806;28;20170;-70
2021/06/18 12:44:08;;;;;;;12.07;10.90;;;35.40;99.90;;;;;;5032484;28;20432;-70
2021/06/18 12:46:34;;;;;;;11.87;10.97;;;35.30;99.90;;;;;;5032544;28;20511;-70
2021/06/18 12:49:07;;;;;;;12.83;11.60;;;35.40;99.90;;;;;;5031900;28;20922;-69
2021/06/18 12:51:33;;;;;;;11.73;10.83;;;35.30;99.90;;;;;;5030717;28;20924;-70
2021/06/18 12:54:07;;;;;;;12.17;11.13;;;35.20;99.90;;;;;;5031278;28;20456;-70
2021/06/18 12:56:44;;;;;;;12.20;11.20;;;35.60;99.90;;;;;;5030831;28;20433;-70